Time;durP1;ratioP1;P1;durP2;ratioP2;P2;SDS_P1;SDS_P2;PMS_P1;PMS_P2;Temp;Humidity;BMP_temperature;BMP_pressure;BME280_temperature;BME280_humidity;BME280_pressure;Samples;Min_cycle;Max_cycle;Signal;HPM_P1;HPM_P2
2021/09/08 00:00:56;;;;;;;12.70;9.37;;;8.30;99.90;;;8.85;100.00;95465.00;2463521;54;26925;-60
2021/09/08 00:03:42;;;;;;;11.57;9.40;;;8.20;99.90;;;8.73;100.00;95455.00;2217610;56;26150;-60
2021/09/08 00:06:29;;;;;;;10.60;8.77;;;8.10;99.90;;;8.64;100.00;95452.00;2456116;54;26574;-60
2021/09/08 00:09:18;;;;;;;10.20;8.60;;;8.10;99.90;;;8.62;100.00;95448.00;2234711;55;27243;-60
2021/09/08 00:12:06;;;;;;;10.37;8.33;;;8.00;99.90;;;8.66;100.00;95439.00;2461445;54;27175;-61
2021/09/08 00:14:53;;;;;;;11.13;8.93;;;8.20;99.90;;;8.94;100.00;95438.00;2232675;54;27178;-60
2021/09/08 00:17:39;;;;;;;11.13;8.73;;;8.30;99.90;;;8.93;100.00;95438.00;2461276;54;26955;-60
2021/09/08 00:20:26;;;;;;;12.07;8.37;;;8.40;99.90;;;9.04;100.00;95433.00;2240097;54;26960;-61
2021/09/08 00:23:12;;;;;;;10.67;8.70;;;8.20;99.90;;;8.88;100.00;95428.00;2471491;54;26945;-60
2021/09/08 00:25:59;;;;;;;9.47;8.40;;;8.30;99.90;;;8.88;100.00;95420.00;2229552;54;26790;-60
2021/09/08 00:28:45;;;;;;;11.43;7.93;;;8.30;99.90;;;8.84;100.00;95421.00;2461855;54;26719;-60
2021/09/08 00:31:32;;;;;;;10.00;8.70;;;8.10;99.90;;;8.62;100.00;95416.00;2229480;54;26927;-59
2021/09/08 00:37:16;;;;;;;12.97;9.57;;;7.90;99.90;;;8.56;100.00;95406.00;2380148;55;34389;-60
2021/09/08 00:40:02;;;;;;;9.67;8.63;;;8.00;99.90;;;8.57;100.00;95419.00;2382763;55;27334;-60
2021/09/08 00:42:49;;;;;;;11.23;8.77;;;8.00;99.90;;;8.54;100.00;95414.00;2168575;55;26769;-59
2021/09/08 00:45:35;;;;;;;12.00;8.90;;;7.90;99.90;;;8.47;100.00;95407.00;2399392;55;26611;-60
2021/09/08 00:51:17;;;;;;;11.23;9.30;;;7.90;99.90;;;8.70;100.00;95382.00;2360531;55;34211;-60
2021/09/08 00:57:07;;;;;;;10.93;9.30;;;7.90;99.90;;;8.59;100.00;95377.00;2327336;56;34366;-60
2021/09/08 00:59:54;;;;;;;10.50;8.50;;;7.80;99.90;;;8.35;100.00;95387.00;2127537;58;27513;-60
2021/09/08 01:02:40;;;;;;;9.73;8.53;;;7.90;99.90;;;8.43;100.00;95392.00;2312915;57;26854;-59
2021/09/08 01:05:27;;;;;;;14.67;9.23;;;7.80;99.90;;;8.34;100.00;95389.00;2116468;58;26668;-59
2021/09/08 01:11:14;;;;;;;11.87;9.47;;;7.70;99.90;;;8.23;100.00;95377.00;2457089;53;34673;-59
2021/09/08 01:16:59;;;;;;;9.97;8.50;;;7.70;99.90;;;8.40;100.00;95373.00;2380351;55;33333;-60
2021/09/08 01:19:45;;;;;;;9.27;8.23;;;7.60;99.90;;;8.24;100.00;95382.00;2141623;57;26801;-60
2021/09/08 01:22:34;;;;;;;9.40;8.00;;;7.60;99.90;;;8.06;100.00;95378.00;2343820;57;27491;-60
2021/09/08 01:25:22;;;;;;;9.80;8.03;;;7.50;99.90;;;8.03;100.00;95378.00;2140654;57;26661;-60
2021/09/08 01:28:08;;;;;;;11.50;8.17;;;7.40;99.90;;;7.96;100.00;95371.00;2366177;57;26836;-60
2021/09/08 01:30:56;;;;;;;11.70;8.47;;;7.40;99.90;;;8.13;100.00;95374.00;2159577;58;26669;-61
2021/09/08 01:33:44;;;;;;;10.10;8.87;;;7.60;99.90;;;8.21;100.00;95373.00;2161120;58;26857;-60
2021/09/08 01:36:37;;;;;;;9.43;8.07;;;7.70;99.90;;;8.24;100.00;95374.00;2159761;58;26138;-61
2021/09/08 01:39:25;;;;;;;10.33;7.97;;;7.60;99.90;;;8.16;100.00;95366.00;2160537;58;26978;-61
2021/09/08 01:42:11;;;;;;;9.77;8.20;;;7.50;99.90;;;8.09;100.00;95364.00;2372327;57;26711;-61
2021/09/08 01:44:58;;;;;;;10.17;8.00;;;7.40;99.90;;;7.97;100.00;95368.00;2161574;58;27366;-60
2021/09/08 01:47:46;;;;;;;11.03;8.97;;;7.30;99.90;;;7.75;100.00;95367.00;2161738;57;26828;-62
2021/09/08 01:50:33;;;;;;;11.23;9.20;;;7.20;99.90;;;7.74;100.00;95366.00;2183962;57;26631;-60
2021/09/08 01:53:19;;;;;;;12.67;8.60;;;7.30;99.90;;;7.88;100.00;95364.00;2186747;57;27416;-61
2021/09/08 01:56:06;;;;;;;10.67;8.50;;;7.30;99.90;;;7.83;100.00;95362.00;2184337;57;26797;-61
2021/09/08 01:58:53;;;;;;;10.77;8.40;;;7.20;99.90;;;7.77;100.00;95354.00;2185961;57;26870;-60
2021/09/08 02:01:39;;;;;;;10.00;8.57;;;7.20;99.90;;;7.78;100.00;95364.00;2185372;57;27017;-60
2021/09/08 02:04:26;;;;;;;12.70;8.90;;;7.20;99.90;;;7.72;100.00;95349.00;2185625;57;26969;-60
2021/09/08 02:07:12;;;;;;;13.83;8.67;;;7.10;99.90;;;7.74;100.00;95354.00;2176501;56;26647;-60
2021/09/08 02:12:54;;;;;;;11.53;8.60;;;7.10;99.90;;;7.84;100.00;95338.00;2378848;55;33908;-60
2021/09/08 02:15:41;;;;;;;10.03;8.13;;;7.10;99.90;;;7.71;100.00;95348.00;2147619;57;26828;-61
2021/09/08 02:18:27;;;;;;;12.03;8.93;;;7.10;99.90;;;7.71;100.00;95337.00;2150580;57;26160;-61
2021/09/08 02:21:14;;;;;;;9.20;8.00;;;7.00;99.90;;;7.58;100.00;95344.00;2361700;57;26599;-59
2021/09/08 02:26:58;;;;;;;9.63;7.93;;;7.10;99.90;;;7.81;100.00;95324.00;2445916;53;34333;-60
2021/09/08 02:29:44;;;;;;;10.60;8.03;;;7.10;99.90;;;7.78;100.00;95343.00;2436877;54;26216;-60
2021/09/08 02:35:27;;;;;;;10.07;7.43;;;7.20;99.90;;;8.02;100.00;95317.00;2432035;54;33275;-61
2021/09/08 02:38:14;;;;;;;8.77;7.33;;;7.20;99.90;;;7.78;100.00;95322.00;2159667;56;27411;-61
2021/09/08 02:41:06;;;;;;;8.77;7.67;;;7.20;99.90;;;7.84;100.00;95329.00;2165941;56;26734;-62
2021/09/08 02:43:52;;;;;;;11.03;8.53;;;7.20;99.90;;;7.73;100.00;95324.00;2163667;56;26277;-62
2021/09/08 02:46:39;;;;;;;11.13;9.00;;;7.10;99.90;;;7.53;100.00;95330.00;2166542;56;26692;-61
2021/09/08 02:49:26;;;;;;;13.00;9.07;;;7.10;99.90;;;7.62;100.00;95322.00;2176406;56;26652;-61
2021/09/08 02:52:12;;;;;;;11.00;8.60;;;7.10;99.90;;;7.59;100.00;95323.00;2185114;57;26731;-61
2021/09/08 02:57:56;;;;;;;9.73;7.90;;;7.00;99.90;;;7.66;100.00;95316.00;2393979;55;33730;-61
2021/09/08 03:00:42;;;;;;;9.70;8.20;;;7.00;99.90;;;7.57;100.00;95313.00;2159562;56;26766;-61
2021/09/08 03:03:28;;;;;;;9.20;7.93;;;7.10;99.90;;;7.67;100.00;95315.00;2386063;56;26810;-61
2021/09/08 03:06:15;;;;;;;9.30;7.27;;;7.00;99.90;;;7.57;100.00;95316.00;2189564;56;26204;-61
2021/09/08 03:09:02;;;;;;;8.93;7.93;;;7.00;99.90;;;7.52;100.00;95316.00;2406749;55;26797;-61
2021/09/08 03:17:42;;;;;;;10.53;7.77;;;6.90;99.90;;;7.83;100.00;95299.00;2387734;55;34228;-61
2021/09/08 03:20:28;;;;;;;10.07;8.17;;;7.10;99.90;;;7.68;100.00;95306.00;2143672;57;26813;-60
2021/09/08 03:23:15;;;;;;;10.37;8.50;;;7.00;99.90;;;7.51;100.00;95303.00;2148938;58;27250;-61
2021/09/08 03:29:00;;;;;;;10.47;8.27;;;6.90;99.90;;;7.64;100.00;95294.00;2300027;57;33983;-61
2021/09/08 03:34:42;;;;;;;9.43;7.67;;;6.90;99.90;;;7.69;100.00;95291.00;2461095;54;33567;-60
2021/09/08 03:40:25;;;;;;;11.27;8.13;;;7.00;99.90;;;7.67;100.00;95285.00;2416777;54;34407;-61
2021/09/08 03:43:12;;;;;;;9.73;8.10;;;6.90;99.90;;;7.53;100.00;95302.00;2198669;55;26865;-61
2021/09/08 03:45:58;;;;;;;11.20;8.53;;;6.90;99.90;;;7.48;100.00;95302.00;2426451;55;26579;-61
2021/09/08 03:48:44;;;;;;;10.90;8.10;;;6.90;99.90;;;7.41;100.00;95295.00;2184776;56;27240;-61
2021/09/08 03:51:31;;;;;;;12.00;8.03;;;6.80;99.90;;;7.26;100.00;95301.00;2428285;55;27417;-61
2021/09/08 03:54:17;;;;;;;13.60;9.00;;;6.80;99.90;;;7.26;100.00;95298.00;2443442;55;26720;-62
2021/09/08 03:57:04;;;;;;;13.53;9.90;;;6.80;99.90;;;7.41;100.00;95301.00;2224403;56;26521;-61
2021/09/08 03:59:50;;;;;;;11.23;9.53;;;6.90;99.90;;;7.42;100.00;95305.00;2449167;55;27114;-61
2021/09/08 04:05:36;;;;;;;12.43;9.13;;;6.80;99.90;;;7.34;100.00;95288.00;2461133;54;34573;-61
2021/09/08 04:08:23;;;;;;;14.00;9.90;;;6.80;99.90;;;7.26;100.00;95301.00;2437633;54;26117;-60
2021/09/08 04:14:07;;;;;;;11.40;9.67;;;6.70;99.90;;;7.21;100.00;95286.00;2470732;54;34423;-61
2021/09/08 04:16:53;;;;;;;13.37;9.87;;;6.70;99.90;;;7.13;100.00;95292.00;2213520;55;26754;-62
2021/09/08 04:19:40;;;;;;;10.87;8.77;;;6.70;99.90;;;7.23;100.00;95290.00;2430460;55;26721;-61
2021/09/08 04:28:18;;;;;;;14.80;9.17;;;6.70;99.90;;;7.10;100.00;95277.00;2415981;54;34942;-61
2021/09/08 04:31:04;;;;;;;16.43;10.00;;;6.50;99.90;;;7.11;100.00;95286.00;2207906;55;26580;-61
2021/09/08 04:33:50;;;;;;;14.57;9.43;;;6.50;99.90;;;7.06;100.00;95286.00;2192749;55;26871;-62
2021/09/08 04:39:34;;;;;;;13.07;10.47;;;6.50;99.90;;;7.17;100.00;95269.00;2377944;55;34896;-61
2021/09/08 04:42:20;;;;;;;12.27;9.60;;;6.50;99.90;;;7.05;100.00;95284.00;2141207;57;26812;-61
2021/09/08 04:45:08;;;;;;;14.13;9.53;;;6.50;99.90;;;6.99;100.00;95290.00;2136423;57;26766;-60
2021/09/08 04:47:55;;;;;;;11.60;9.30;;;6.40;99.90;;;7.06;100.00;95293.00;2154353;56;26709;-61
2021/09/08 04:50:42;;;;;;;12.20;9.60;;;6.50;99.90;;;7.13;100.00;95284.00;2161023;57;27073;-61
2021/09/08 04:53:28;;;;;;;13.40;9.30;;;6.50;99.90;;;7.16;100.00;95284.00;2371345;56;26125;-61
2021/09/08 04:56:16;;;;;;;12.87;9.67;;;6.50;99.90;;;7.12;100.00;95278.00;2158490;57;27425;-61
2021/09/08 04:59:02;;;;;;;13.00;9.33;;;6.60;99.90;;;7.24;100.00;95286.00;2368617;56;26741;-62
2021/09/08 05:01:48;;;;;;;12.40;9.20;;;6.60;99.90;;;7.24;100.00;95282.00;2158849;57;26794;-62
2021/09/08 05:04:35;;;;;;;10.57;7.93;;;6.60;99.90;;;7.22;100.00;95288.00;2371103;56;26776;-61
2021/09/08 05:07:21;;;;;;;11.17;8.77;;;6.70;99.90;;;7.24;100.00;95287.00;2160546;57;27228;-61
2021/09/08 05:10:10;;;;;;;11.40;9.30;;;6.60;99.90;;;7.16;100.00;95278.00;2371667;56;26645;-61
2021/09/08 05:12:56;;;;;;;11.77;8.70;;;6.70;99.90;;;7.21;100.00;95277.00;2160106;57;26268;-62
2021/09/08 05:15:43;;;;;;;12.13;8.90;;;6.70;99.90;;;7.20;100.00;95287.00;2160441;57;27108;-61
2021/09/08 05:18:29;;;;;;;10.03;8.40;;;6.80;99.90;;;7.29;100.00;95290.00;2360008;56;26709;-61
2021/09/08 05:21:16;;;;;;;10.47;8.80;;;6.80;99.90;;;7.40;100.00;95280.00;2146522;57;27084;-61
2021/09/08 05:24:02;;;;;;;10.67;8.70;;;6.90;99.90;;;7.46;100.00;95280.00;2367573;56;26674;-61
2021/09/08 05:26:49;;;;;;;9.53;7.73;;;6.90;99.90;;;7.52;100.00;95285.00;2158265;57;26643;-62
2021/09/08 05:29:35;;;;;;;11.57;8.63;;;7.00;99.90;;;7.57;100.00;95285.00;2372024;56;26595;-61
2021/09/08 05:32:21;;;;;;;11.63;7.93;;;7.00;99.90;;;7.64;100.00;95286.00;2158774;57;26785;-62
2021/09/08 05:35:12;;;;;;;9.77;8.73;;;7.00;99.90;;;7.59;100.00;95288.00;2369696;56;27307;-62
2021/09/08 05:40:56;;;;;;;9.67;8.40;;;7.20;99.90;;;7.96;100.00;95277.00;2400413;55;34200;-61
2021/09/08 05:43:42;;;;;;;9.90;8.10;;;7.30;99.90;;;8.00;100.00;95286.00;2160299;56;26845;-61
2021/09/08 05:46:29;;;;;;;9.57;8.23;;;7.40;99.90;;;8.07;100.00;95291.00;2363390;56;26172;-61
2021/09/08 05:49:15;;;;;;;8.67;7.77;;;7.50;99.90;;;8.16;100.00;95294.00;2362401;56;26161;-62
2021/09/08 05:52:02;;;;;;;12.60;7.87;;;7.60;99.90;;;8.21;100.00;95290.00;2148559;58;26945;-61
2021/09/08 05:54:49;;;;;;;9.23;8.33;;;7.70;99.90;;;8.31;100.00;95299.00;2372105;56;26921;-61
2021/09/08 05:57:35;;;;;;;9.40;8.33;;;7.70;99.90;;;8.36;100.00;95296.00;2158776;58;27314;-61
2021/09/08 06:00:22;;;;;;;10.10;8.80;;;7.90;99.90;;;8.54;100.00;95299.00;2374084;56;27675;-63
2021/09/08 06:03:08;;;;;;;9.57;8.57;;;8.00;99.90;;;8.66;100.00;95303.00;2179539;57;26687;-61
2021/09/08 06:05:55;;;;;;;13.37;9.47;;;8.10;99.90;;;8.72;100.00;95297.00;2404964;56;26336;-61
2021/09/08 06:08:41;;;;;;;10.37;9.10;;;8.20;99.90;;;8.89;100.00;95291.00;2178055;58;26162;-61
2021/09/08 06:11:27;;;;;;;13.57;9.20;;;8.40;99.90;;;9.12;100.00;95294.00;2178820;58;26114;-61
2021/09/08 06:14:14;;;;;;;12.83;9.17;;;8.60;99.90;;;9.30;100.00;95295.00;2373754;55;26860;-61
2021/09/08 06:17:01;;;;;;;11.20;9.80;;;8.80;99.90;;;9.46;100.00;95292.00;2369235;56;27490;-61
2021/09/08 06:19:47;;;;;;;11.43;9.53;;;8.90;99.90;;;9.62;100.00;95291.00;2172559;56;26888;-62
2021/09/08 06:22:34;;;;;;;11.37;9.53;;;9.10;99.90;;;9.81;100.00;95283.00;2156128;56;26843;-61
2021/09/08 06:25:20;;;;;;;14.50;9.10;;;9.30;99.90;;;9.97;100.00;95289.00;2154722;57;26740;-61
2021/09/08 06:28:06;;;;;;;11.77;9.03;;;9.50;99.90;;;10.17;100.00;95279.00;2148602;57;27334;-61
2021/09/08 06:30:53;;;;;;;14.73;9.47;;;9.60;99.90;;;10.35;100.00;95281.00;2149987;57;27045;-62
2021/09/08 06:33:39;;;;;;;12.23;9.60;;;9.80;99.90;;;10.52;100.00;95276.00;2374015;56;26197;-61
2021/09/08 06:39:22;;;;;;;10.93;9.50;;;10.00;99.90;;;12.31;100.00;95264.00;2413517;55;34694;-61
2021/09/08 06:42:08;;;;;;;10.47;8.60;;;12.40;99.90;;;14.73;100.00;95268.00;2370401;57;27232;-65
2021/09/08 06:44:55;;;;;;;8.65;7.30;;;14.60;99.90;;;17.54;100.00;95251.00;2157567;58;26759;-62
2021/09/08 06:47:42;;;;;;;7.95;6.95;;;16.30;99.90;;;19.30;100.00;95245.00;2382427;55;26203;-62
2021/09/08 06:53:25;;;;;;;8.20;7.15;;;19.10;99.90;;;22.68;100.00;95239.00;2424399;55;34612;-64
2021/09/08 06:56:12;;;;;;;9.77;8.00;;;20.60;99.90;;;23.79;100.00;95234.00;2160952;57;26757;-62
2021/09/08 06:58:58;;;;;;;8.32;7.53;;;21.50;99.90;;;24.36;100.00;95234.00;2375045;56;27154;-61
2021/09/08 07:01:45;;;;;;;8.25;7.45;;;21.90;99.90;;;24.73;100.00;95228.00;2161445;57;26690;-61
2021/09/08 07:04:32;;;;;;;8.32;7.40;;;22.40;99.90;;;24.80;100.00;95227.00;2374907;56;26819;-62
2021/09/08 07:07:20;;;;;;;8.70;7.80;;;22.90;99.90;;;24.89;100.00;95217.00;2180254;57;27192;-62
2021/09/08 07:10:08;;;;;;;9.23;8.05;;;22.70;99.90;;;25.03;100.00;95221.00;2165098;56;27337;-61
2021/09/08 07:12:54;;;;;;;8.50;7.70;;;22.80;99.90;;;25.69;100.00;95222.00;2166135;56;26658;-61
2021/09/08 07:15:40;;;;;;;8.30;7.57;;;22.90;99.90;;;26.18;100.00;95217.00;2166518;56;26644;-62
2021/09/08 07:18:27;;;;;;;8.88;7.68;;;23.80;99.90;;;26.56;98.59;95218.00;2378376;56;26703;-61
2021/09/08 07:21:13;;;;;;;8.20;7.40;;;23.80;99.90;;;26.59;97.84;95209.00;2164175;56;26734;-61
2021/09/08 07:24:00;;;;;;;7.90;6.80;;;22.90;99.90;;;26.04;99.21;95214.00;2397027;55;26107;-60
2021/09/08 07:26:46;;;;;;;7.45;6.65;;;23.10;99.90;;;26.27;100.00;95209.00;2183502;55;27319;-61
2021/09/08 07:29:33;;;;;;;7.43;6.72;;;23.60;99.90;;;27.04;93.77;95217.00;2408335;55;27303;-62
2021/09/08 07:32:19;;;;;;;7.62;6.70;;;24.00;99.90;;;26.74;98.87;95218.00;2189989;55;27347;-61
2021/09/08 07:35:09;;;;;;;8.38;6.45;;;24.10;99.90;;;26.35;99.61;95219.00;2186955;55;25696;-61
2021/09/08 07:37:57;;;;;;;8.70;6.35;;;24.70;99.90;;;27.26;98.86;95213.00;2207751;56;26885;-61
2021/09/08 07:40:44;;;;;;;7.18;5.85;;;24.80;99.90;;;27.44;97.54;95213.00;2209721;56;27272;-61
2021/09/08 07:43:30;;;;;;;6.25;5.72;;;25.60;99.90;;;27.88;90.20;95205.00;2431450;55;26904;-61
2021/09/08 07:46:17;;;;;;;7.50;6.00;;;26.00;99.90;;;27.69;90.87;95208.00;2208787;56;25773;-60
2021/09/08 07:52:01;;;;;;;6.35;5.85;;;25.80;99.90;;;28.26;91.44;95202.00;2404434;54;34051;-62
2021/09/08 07:54:47;;;;;;;6.53;5.87;;;25.70;99.90;;;28.45;86.02;95213.00;2228882;55;25511;-61
2021/09/08 07:57:34;;;;;;;8.32;6.40;;;26.00;99.90;;;29.14;79.76;95211.00;2249423;55;27289;-61
2021/09/08 08:00:20;;;;;;;6.70;6.10;;;25.90;99.90;;;28.60;79.55;95207.00;2483287;54;26973;-60
2021/09/08 08:06:04;;;;;;;6.57;5.90;;;25.70;99.90;;;28.61;84.64;95204.00;2321826;56;34336;-60
2021/09/08 08:11:48;;;;;;;7.35;5.78;;;26.10;99.90;;;29.76;79.18;95202.00;2361125;56;32289;-61
2021/09/08 08:14:35;;;;;;;6.32;5.72;;;26.70;99.90;;;29.84;79.01;95201.00;2132470;58;26848;-60
2021/09/08 08:17:21;;;;;;;6.12;5.53;;;26.90;99.90;;;30.49;71.66;95201.00;2124609;58;25983;-60
2021/09/08 08:20:11;;;;;;;6.97;6.28;;;27.20;99.90;;;30.19;72.08;95197.00;2323312;57;27247;-59
2021/09/08 08:22:57;;;;;;;8.05;5.62;;;26.90;99.90;;;29.42;75.38;95196.00;2125756;57;26704;-58
2021/09/08 08:25:44;;;;;;;6.35;5.70;;;26.70;99.90;;;30.28;76.34;95189.00;2334492;57;25701;-59
2021/09/08 08:28:30;;;;;;;7.72;6.10;;;27.10;99.90;;;30.42;67.96;95196.00;2102686;57;25743;-58
2021/09/08 08:31:18;;;;;;;6.85;6.10;;;27.40;99.90;;;29.91;70.99;95183.00;2322188;57;25621;-58
2021/09/08 08:34:05;;;;;;;6.80;6.20;;;27.00;99.90;;;30.17;71.69;95188.00;2137643;57;26009;-58
2021/09/08 08:36:51;;;;;;;6.32;5.72;;;26.90;99.90;;;29.94;76.95;95189.00;2127911;57;25624;-58
2021/09/08 08:39:38;;;;;;;8.57;5.97;;;27.10;99.90;;;30.42;75.85;95191.00;2120509;58;25158;-58
2021/09/08 08:42:27;;;;;;;6.20;5.60;;;27.60;99.90;;;31.21;62.13;95186.00;2114639;58;26229;-58
2021/09/08 08:45:14;;;;;;;6.00;5.50;;;28.10;99.90;;;31.84;62.95;95189.00;2113704;58;25164;-60
2021/09/08 08:48:01;;;;;;;6.55;5.68;;;28.70;99.90;;;32.57;64.24;95186.00;2106270;58;25649;-60
2021/09/08 08:53:44;;;;;;;5.82;5.30;;;29.60;99.90;;;33.66;56.41;95175.00;2377616;55;33916;-60
2021/09/08 08:56:31;;;;;;;6.72;5.57;;;30.10;99.90;;;33.60;55.90;95175.00;2173732;56;25752;-60
2021/09/08 08:59:17;;;;;;;5.80;5.30;;;30.10;99.90;;;33.87;53.06;95172.00;2400933;55;25597;-59
2021/09/08 09:02:20;;;;;;;5.70;5.20;;;30.10;99.90;;;34.10;51.59;95162.00;2190984;56;25797;-59
2021/09/08 09:05:09;;;;;;;5.43;4.68;;;30.40;99.90;;;33.90;52.10;95166.00;2189594;56;25626;-60
2021/09/08 09:07:55;;;;;;;5.82;5.32;;;31.00;99.90;;;35.29;50.76;95166.00;2175053;56;26010;-60
2021/09/08 09:10:43;;;;;;;5.87;5.28;;;31.00;99.90;;;34.26;47.53;95164.00;2377742;56;25621;-59
2021/09/08 09:13:34;;;;;;;6.90;5.18;;;30.30;99.90;;;33.82;51.37;95161.00;2163518;56;26000;-60
2021/09/08 09:19:21;;;;;;;5.47;4.97;;;31.50;99.90;;;36.62;48.03;95153.00;2389999;54;32418;-59
2021/09/08 09:22:08;;;;;;;5.90;5.32;;;32.20;99.90;;;36.28;44.44;95163.00;2182748;55;25707;-59
2021/09/08 09:24:55;;;;;;;5.37;4.97;;;32.10;99.90;;;35.58;48.09;95158.00;2387315;55;26063;-60
2021/09/08 09:27:47;;;;;;;6.10;5.45;;;32.40;99.90;;;36.46;45.17;95145.00;2159883;55;25723;-60
2021/09/08 09:33:30;;;;;;;5.90;5.30;;;32.80;99.90;;;36.16;42.93;95148.00;2324160;55;32870;-59
2021/09/08 09:36:19;;;;;;;5.78;5.28;;;32.40;99.90;;;36.81;42.73;95150.00;2123465;56;25702;-59
2021/09/08 09:39:06;;;;;;;6.55;5.62;;;32.80;99.90;;;36.36;45.76;95145.00;2133017;57;26182;-59
2021/09/08 09:44:58;;;;;;;7.18;5.95;;;32.40;99.90;;;36.74;43.41;95132.00;2428963;54;33356;-60
2021/09/08 09:47:46;;;;;;;6.00;5.50;;;32.50;99.90;;;36.22;50.65;95137.00;2194525;54;25742;-60
2021/09/08 09:53:31;;;;;;;6.37;5.87;;;33.50;99.90;;;37.54;43.03;95135.00;2374692;55;33727;-59
2021/09/08 09:56:17;;;;;;;6.03;5.53;;;33.70;99.90;;;37.37;41.20;95132.00;2146689;56;25662;-59
2021/09/08 09:59:04;;;;;;;6.22;5.60;;;33.70;99.90;;;37.44;44.53;95127.00;2371976;56;25645;-60
2021/09/08 10:01:50;;;;;;;6.10;5.37;;;33.70;99.90;;;37.69;46.85;95126.00;2371787;56;25137;-60
2021/09/08 10:04:37;;;;;;;7.50;5.50;;;33.90;99.90;;;38.32;41.14;95118.00;2158344;56;26284;-60
2021/09/08 10:07:24;;;;;;;6.60;5.93;;;34.20;99.90;;;38.40;40.42;95126.00;2380511;56;26209;-60
2021/09/08 10:10:17;;;;;;;6.03;5.40;;;34.30;99.90;;;37.98;40.63;95112.00;2145943;56;25831;-60
2021/09/08 10:13:11;;;;;;;6.18;5.65;;;34.30;99.90;;;38.38;42.66;95114.00;2140417;57;25757;-59
2021/09/08 10:16:00;;;;;;;8.95;5.40;;;34.30;99.90;;;37.95;41.22;95113.00;2383083;55;26164;-59
2021/09/08 10:18:48;;;;;;;6.50;5.65;;;34.30;99.90;;;38.87;39.80;95110.00;2174797;56;25748;-59
2021/09/08 10:21:37;;;;;;;6.50;5.90;;;34.30;99.90;;;38.93;36.98;95103.00;2391762;55;25591;-59
2021/09/08 10:24:24;;;;;;;6.60;5.68;;;34.50;99.90;;;39.36;37.04;95099.00;2180031;56;25606;-59
2021/09/08 10:27:26;;;;;;;7.25;5.78;;;34.40;99.90;;;38.76;36.41;95095.00;2186020;56;26223;-59
2021/09/08 10:30:14;;;;;;;6.12;5.50;;;34.30;99.90;;;38.31;40.19;95092.00;2186802;56;26095;-59
2021/09/08 10:33:04;;;;;;;16.58;11.93;;;34.40;99.90;;;38.43;38.62;95082.00;2396903;55;25823;-60
2021/09/08 10:35:50;;;;;;;9.63;8.63;;;34.30;99.90;;;38.32;37.44;95080.00;2183463;56;25632;-59
2021/09/08 10:41:43;;;;;;;7.05;6.37;;;33.90;99.90;;;37.94;39.72;95078.00;2333659;56;32900;-59
2021/09/08 10:44:45;;;;;;;5.90;5.40;;;34.00;99.90;;;38.26;37.56;95084.00;2116430;58;26268;-59
2021/09/08 10:47:38;;;;;;;8.35;4.97;;;33.90;99.90;;;37.59;37.40;95070.00;2123042;59;26266;-59
2021/09/08 10:53:41;;;;;;;5.68;5.07;;;34.30;99.90;;;39.17;36.68;95078.00;2337391;56;33218;-59
2021/09/08 11:00:01;;;;;;;5.93;5.43;;;34.90;99.90;;;40.08;35.29;95070.00;2396981;55;32262;-59
2021/09/08 11:08:48;;;;;;;5.70;4.97;;;34.50;99.90;;;38.15;38.75;95056.00;2361394;55;32997;-59
2021/09/08 11:11:34;;;;;;;5.95;5.35;;;34.70;99.90;;;38.87;38.46;95060.00;2120249;57;26120;-59
2021/09/08 11:14:20;;;;;;;6.03;5.53;;;34.50;99.90;;;38.24;35.41;95043.00;2121677;57;25631;-59
2021/09/08 11:17:07;;;;;;;6.00;5.37;;;34.20;99.90;;;37.17;38.29;95046.00;2328574;57;25751;-60
2021/09/08 11:19:55;;;;;;;5.93;5.43;;;33.70;99.90;;;36.74;39.28;95041.00;2123704;57;25671;-59
2021/09/08 11:22:41;;;;;;;6.93;6.32;;;33.90;99.90;;;37.10;40.97;95043.00;2330467;57;26321;-59
2021/09/08 11:25:32;;;;;;;6.30;5.78;;;34.00;99.90;;;36.74;39.79;95044.00;2124107;57;25826;-59
2021/09/08 11:28:19;;;;;;;5.97;5.47;;;34.00;99.90;;;36.40;43.70;95037.00;2330191;57;25567;-59
2021/09/08 11:31:14;;;;;;;5.93;5.43;;;34.10;99.90;;;36.34;40.63;95043.00;2123415;57;26289;-59
2021/09/08 11:34:02;;;;;;;5.97;5.37;;;34.00;99.90;;;35.83;42.04;95033.00;2123275;57;25676;-59
2021/09/08 11:36:51;;;;;;;6.37;5.78;;;34.10;99.90;;;35.45;43.48;95036.00;2124247;57;25552;-59
2021/09/08 11:39:37;;;;;;;7.20;5.12;;;33.30;99.90;;;33.95;46.33;95035.00;2137148;56;25079;-58
2021/09/08 11:42:26;;;;;;;5.87;5.28;;;32.40;99.90;;;32.31;50.77;95038.00;2132397;57;26190;-59
2021/09/08 11:48:10;;;;;;;6.53;5.68;;;32.10;99.90;;;32.41;55.65;95036.00;2339161;55;34331;-59
2021/09/08 11:53:59;;;;;;;6.22;5.62;;;31.80;99.90;;;31.28;61.82;95027.00;2401629;55;33208;-61
2021/09/08 11:56:54;;;;;;;6.12;5.30;;;30.60;99.90;;;29.92;73.26;95037.00;2185886;55;25848;-61
2021/09/08 12:02:40;;;;;;;8.50;5.28;;;30.50;99.90;;;30.26;84.56;95030.00;2438410;53;33957;-61
2021/09/08 12:05:32;;;;;;;7.32;5.68;;;30.60;99.90;;;30.42;79.17;95036.00;2202435;55;27357;-60
2021/09/08 12:08:22;;;;;;;6.87;5.25;;;30.30;99.90;;;30.34;82.10;95025.00;2436219;55;26769;-61
2021/09/08 12:11:09;;;;;;;6.60;5.40;;;29.90;99.90;;;29.76;81.70;95030.00;2214275;55;26625;-61
2021/09/08 12:13:55;;;;;;;5.82;5.32;;;29.40;99.90;;;29.27;85.85;95021.00;2438439;55;26656;-61
2021/09/08 12:16:42;;;;;;;7.05;5.60;;;28.90;99.90;;;28.77;99.08;95022.00;2210514;55;26665;-61
2021/09/08 12:19:34;;;;;;;6.28;5.25;;;28.90;99.90;;;29.11;89.80;95008.00;2438770;55;27436;-60
2021/09/08 12:22:23;;;;;;;5.70;5.18;;;28.70;99.90;;;28.82;93.48;95010.00;2436660;55;26769;-60
2021/09/08 12:28:12;;;;;;;6.07;5.32;;;28.10;99.90;;;28.31;94.75;95003.00;2390989;55;33748;-60
2021/09/08 12:31:20;;;;;;;5.90;5.30;;;27.90;99.90;;;28.19;97.12;95013.00;2182162;55;26658;-60
2021/09/08 12:34:06;;;;;;;6.75;5.68;;;27.70;99.90;;;27.73;100.00;95004.00;2435887;55;27386;-60
2021/09/08 12:36:53;;;;;;;5.72;5.20;;;27.40;99.90;;;27.70;100.00;95004.00;2159143;57;26699;-60
2021/09/08 12:42:43;;;;;;;6.07;4.93;;;27.30;99.90;;;27.53;98.86;94993.00;2390087;55;34242;-60
2021/09/08 12:45:29;;;;;;;5.80;5.28;;;27.30;99.90;;;27.50;100.00;94996.00;2388414;56;26896;-60
2021/09/08 12:48:25;;;;;;;5.87;5.30;;;27.60;99.90;;;27.83;100.00;94998.00;2145079;56;26714;-60
2021/09/08 12:54:11;;;;;;;5.72;5.10;;;27.80;99.90;;;28.46;96.64;94979.00;2419850;55;33974;-60
2021/09/08 12:56:58;;;;;;;6.70;5.53;;;27.90;99.90;;;28.21;98.26;94972.00;2176815;56;27321;-60
2021/09/08 12:59:45;;;;;;;5.85;5.25;;;27.60;99.90;;;27.83;96.75;94980.00;2393677;55;26750;-60
2021/09/08 13:02:31;;;;;;;5.78;5.18;;;27.60;99.90;;;27.84;100.00;94984.00;2188636;56;26758;-60
2021/09/08 13:05:18;;;;;;;6.05;5.20;;;27.40;99.90;;;27.72;99.43;94976.00;2382266;56;26673;-60
2021/09/08 13:08:05;;;;;;;6.03;5.40;;;27.20;99.90;;;27.32;100.00;94973.00;2164260;57;26741;-60
2021/09/08 13:10:52;;;;;;;7.05;5.28;;;27.10;99.90;;;27.25;100.00;94970.00;2164981;57;26145;-61
2021/09/08 13:13:38;;;;;;;5.80;5.20;;;27.10;99.90;;;27.27;100.00;94966.00;2377422;56;26658;-60
2021/09/08 13:16:25;;;;;;;5.85;5.12;;;26.90;99.90;;;27.18;100.00;94975.00;2162701;57;26659;-60
2021/09/08 13:19:11;;;;;;;5.30;4.80;;;26.90;99.90;;;27.12;93.84;94969.00;2379443;56;26257;-61
2021/09/08 13:21:57;;;;;;;5.62;4.57;;;26.80;99.90;;;27.17;99.54;94974.00;2164198;57;27221;-60
2021/09/08 13:27:41;;;;;;;5.30;4.80;;;26.70;99.90;;;27.12;97.24;94958.00;2420429;55;33156;-61
2021/09/08 13:30:27;;;;;;;6.25;5.07;;;26.40;99.90;;;26.66;98.80;94957.00;2169889;57;26836;-60
2021/09/08 13:33:13;;;;;;;5.40;4.87;;;26.50;99.90;;;26.84;98.38;94958.00;2156628;57;26906;-60
2021/09/08 13:36:02;;;;;;;8.13;5.05;;;26.40;99.90;;;26.67;100.00;94948.00;2367260;57;26846;-60
2021/09/08 13:41:47;;;;;;;6.03;5.43;;;26.30;99.90;;;26.90;100.00;94944.00;2388909;55;34487;-60
2021/09/08 13:44:34;;;;;;;6.65;5.95;;;26.30;99.90;;;26.85;100.00;94944.00;2143663;57;27088;-60
2021/09/08 13:47:20;;;;;;;7.43;5.35;;;26.40;99.90;;;26.91;100.00;94940.00;2353563;56;27202;-60
2021/09/08 13:50:08;;;;;;;6.87;5.35;;;26.50;99.90;;;27.02;100.00;94944.00;2119971;57;27161;-61